createdAt,value
2023-03-18T00:00:13.267Z,66.16
2023-03-18T00:02:40.768Z,66.44
2023-03-18T00:05:08.841Z,65.44
2023-03-18T00:07:36.370Z,65.11
2023-03-18T00:10:07.614Z,66.96
2023-03-18T00:12:34.513Z,66.59
2023-03-18T00:15:02.477Z,66.08
2023-03-18T00:17:29.052Z,66.57
2023-03-18T00:19:55.723Z,67.28
2023-03-18T00:22:22.794Z,66.73
2023-03-18T00:24:49.474Z,66.30
2023-03-18T00:27:16.456Z,67.77
2023-03-18T00:29:43.910Z,68.28
2023-03-18T00:32:11.165Z,66.83
2023-03-18T00:34:37.758Z,66.83
2023-03-18T00:37:04.470Z,66.83
2023-03-18T00:39:33.084Z,67.94
2023-03-18T00:42:08.118Z,67.74
2023-03-18T00:44:34.736Z,66.72
2023-03-18T00:47:01.503Z,66.85
2023-03-18T00:49:28.090Z,68.01
2023-03-18T00:51:54.652Z,67.90
2023-03-18T00:54:22.443Z,66.50
2023-03-18T00:56:49.750Z,66.94
2023-03-18T00:59:16.781Z,66.76
2023-03-18T01:01:43.402Z,67.46
2023-03-18T01:04:10.196Z,67.26
2023-03-18T01:06:38.590Z,67.83
2023-03-18T01:09:08.860Z,68.10
2023-03-18T01:11:35.561Z,67.54
2023-03-18T01:14:03.637Z,68.49
2023-03-18T01:16:30.393Z,67.34
2023-03-18T01:18:57.354Z,67.54
2023-03-18T01:21:23.946Z,68.42
2023-03-18T01:23:50.530Z,68.79
2023-03-18T01:26:17.393Z,69.38
2023-03-18T01:28:44.354Z,69.51
2023-03-18T01:31:12.584Z,68.81
2023-03-18T01:33:40.321Z,69.29
2023-03-18T01:36:08.195Z,68.85
2023-03-18T01:38:35.425Z,68.25
2023-03-18T01:41:02.463Z,71.11
2023-03-18T01:43:35.802Z,70.15
2023-03-18T01:46:27.937Z,70.02
2023-03-18T01:48:54.792Z,69.61
2023-03-18T01:51:22.532Z,69.47
2023-03-18T01:53:50.732Z,70.18
2023-03-18T01:56:18.739Z,70.24
2023-03-18T01:58:49.573Z,70.79
2023-03-18T02:01:31.036Z,70.11
2023-03-18T02:03:57.945Z,70.12
2023-03-18T02:06:24.904Z,70.20
2023-03-18T02:08:51.757Z,71.81
2023-03-18T02:11:19.103Z,70.99
2023-03-18T02:13:46.791Z,71.94
2023-03-18T02:16:25.700Z,71.61
2023-03-18T02:18:56.501Z,71.77
2023-03-18T02:22:00.869Z,72.44
2023-03-18T02:24:39.043Z,71.25
2023-03-18T02:27:25.721Z,71.68
2023-03-18T02:29:59.636Z,72.31
2023-03-18T02:32:28.603Z,71.10
2023-03-18T02:34:57.124Z,71.99
2023-03-18T02:37:23.705Z,71.60
2023-03-18T02:39:50.673Z,71.53
2023-03-18T02:42:29.444Z,72.40
2023-03-18T02:44:56.337Z,71.92
2023-03-18T02:47:26.303Z,72.07
2023-03-18T02:49:53.653Z,71.54
2023-03-18T02:52:20.253Z,73.18
2023-03-18T02:54:46.913Z,73.35
2023-03-18T02:57:13.492Z,72.85
2023-03-18T02:59:40.023Z,72.52
2023-03-18T03:02:07.165Z,72.20
2023-03-18T03:04:33.806Z,73.21
2023-03-18T03:07:01.629Z,72.91
2023-03-18T03:09:28.845Z,72.15
2023-03-18T03:11:55.583Z,73.29
2023-03-18T03:14:22.360Z,72.46
2023-03-18T03:16:50.206Z,72.61
2023-03-18T03:19:17.064Z,72.11
2023-03-18T03:21:43.940Z,72.76
2023-03-18T03:24:11.060Z,72.54
2023-03-18T03:26:37.756Z,73.07
2023-03-18T03:29:05.185Z,72.38
2023-03-18T03:31:31.995Z,72.53
2023-03-18T03:33:59.211Z,73.42
2023-03-18T03:36:26.108Z,73.64
2023-03-18T03:38:52.743Z,73.43
2023-03-18T03:41:19.645Z,74.16
2023-03-18T03:43:46.231Z,74.48
2023-03-18T03:46:12.898Z,74.68
2023-03-18T03:48:39.786Z,74.23
2023-03-18T03:51:07.558Z,74.19
2023-03-18T03:53:34.737Z,73.25
2023-03-18T03:56:01.677Z,74.02
2023-03-18T03:58:29.075Z,74.88
2023-03-18T04:00:56.086Z,74.27
2023-03-18T04:03:22.691Z,74.09
2023-03-18T04:05:49.453Z,73.33
2023-03-18T04:08:16.167Z,74.27
2023-03-18T04:10:43.283Z,73.40
2023-03-18T04:13:10.270Z,74.48
2023-03-18T04:15:37.717Z,75.18
2023-03-18T04:18:07.122Z,76.08
2023-03-18T04:20:38.760Z,75.62
2023-03-18T04:23:06.445Z,76.21
2023-03-18T04:25:33.309Z,75.51
2023-03-18T04:27:59.884Z,74.80
2023-03-18T04:30:27.515Z,75.87
2023-03-18T04:32:55.077Z,75.82
2023-03-18T04:35:23.327Z,76.10
2023-03-18T04:37:50.395Z,76.18
2023-03-18T04:40:17.750Z,76.11
2023-03-18T04:42:47.453Z,76.15
2023-03-18T04:45:15.622Z,76.55
2023-03-18T04:47:43.005Z,75.90
2023-03-18T04:50:13.726Z,75.89
2023-03-18T04:52:40.888Z,76.15
2023-03-18T04:55:09.481Z,76.87
2023-03-18T04:57:37.714Z,76.25
2023-03-18T05:00:09.657Z,76.09
2023-03-18T05:02:38.346Z,76.25
2023-03-18T05:05:05.649Z,76.38
2023-03-18T05:07:32.186Z,75.95
2023-03-18T05:09:58.888Z,76.60
2023-03-18T05:12:25.694Z,77.06
2023-03-18T05:14:52.964Z,76.63
2023-03-18T05:17:19.979Z,76.83
2023-03-18T05:19:48.461Z,77.06
2023-03-18T05:22:18.009Z,76.72
2023-03-18T05:24:48.342Z,77.24
2023-03-18T05:27:18.263Z,76.70
2023-03-18T05:29:45.752Z,76.80
2023-03-18T05:32:12.759Z,76.92
2023-03-18T05:34:41.960Z,77.15
2023-03-18T05:37:11.017Z,76.93
2023-03-18T05:39:38.301Z,76.17
2023-03-18T05:42:05.560Z,76.44
2023-03-18T05:44:32.652Z,76.58
2023-03-18T05:46:59.680Z,76.12
2023-03-18T05:49:27.384Z,75.95
2023-03-18T05:51:55.068Z,75.99
2023-03-18T05:54:22.066Z,76.06
2023-03-18T05:56:49.873Z,75.52
2023-03-18T05:59:16.618Z,74.65
2023-03-18T06:01:44.543Z,74.36
2023-03-18T06:04:11.464Z,74.18
2023-03-18T06:06:40.579Z,73.76
2023-03-18T06:09:12.874Z,72.91
2023-03-18T06:11:40.218Z,72.82
2023-03-18T06:14:08.078Z,72.27
2023-03-18T06:16:35.162Z,71.76
2023-03-18T06:19:03.378Z,71.84
2023-03-18T06:21:31.643Z,70.80
2023-03-18T06:23:58.736Z,69.38
2023-03-18T06:26:25.466Z,68.70
2023-03-18T06:28:53.605Z,68.55
2023-03-18T06:31:21.872Z,68.31
2023-03-18T06:33:48.584Z,68.45
2023-03-18T06:36:16.767Z,68.53
2023-03-18T06:38:44.890Z,68.30
2023-03-18T06:41:11.928Z,67.06
2023-03-18T06:43:39.209Z,66.80
2023-03-18T06:46:05.955Z,65.90
2023-03-18T06:48:32.995Z,65.95
2023-03-18T06:50:59.637Z,65.09
2023-03-18T06:53:27.582Z,65.33
2023-03-18T06:55:54.233Z,65.04
2023-03-18T06:58:20.865Z,64.78
2023-03-18T07:00:47.764Z,64.22
2023-03-18T07:03:15.863Z,64.25
2023-03-18T07:05:42.891Z,64.01
2023-03-18T07:08:10.282Z,63.72
2023-03-18T07:10:37.080Z,62.78
2023-03-18T07:13:04.613Z,61.43
2023-03-18T07:15:32.098Z,60.89
2023-03-18T07:18:00.599Z,59.91
2023-03-18T07:20:28.218Z,59.65
2023-03-18T07:22:55.040Z,58.74
2023-03-18T07:25:23.093Z,59.22
2023-03-18T07:27:49.892Z,58.75
2023-03-18T07:30:18.033Z,58.13
2023-03-18T07:32:46.136Z,57.30
2023-03-18T07:35:14.286Z,57.10
2023-03-18T07:37:41.714Z,56.88
2023-03-18T07:40:10.245Z,57.06
2023-03-18T07:42:36.766Z,56.15
2023-03-18T07:45:03.831Z,55.40
2023-03-18T07:47:30.611Z,55.79
2023-03-18T07:49:57.531Z,55.59
2023-03-18T07:52:24.634Z,54.64
2023-03-18T07:54:51.254Z,54.52
2023-03-18T07:57:18.019Z,53.90
2023-03-18T07:59:44.921Z,53.95
2023-03-18T08:02:14.393Z,53.45
2023-03-18T08:04:42.829Z,53.15
2023-03-18T08:07:10.562Z,52.80
2023-03-18T08:09:37.342Z,51.55
2023-03-18T08:12:04.472Z,51.85
2023-03-18T08:14:31.328Z,51.28
2023-03-18T08:16:58.180Z,50.19
2023-03-18T08:19:24.909Z,49.21
2023-03-18T08:21:51.543Z,48.27
2023-03-18T08:24:18.393Z,48.39
2023-03-18T08:26:45.291Z,48.32
2023-03-18T08:29:11.865Z,48.31
2023-03-18T08:31:38.849Z,44.93
2023-03-18T08:34:05.643Z,47.21
2023-03-18T08:36:32.388Z,45.51
2023-03-18T08:38:58.963Z,44.60
2023-03-18T08:41:26.233Z,45.79
2023-03-18T08:43:53.283Z,43.89
2023-03-18T08:46:20.173Z,44.40
2023-03-18T08:48:46.837Z,43.90
2023-03-18T08:51:13.519Z,44.20
2023-03-18T08:53:40.707Z,44.38
2023-03-18T08:56:07.862Z,43.14
2023-03-18T08:58:34.710Z,42.90
2023-03-18T09:01:03.586Z,43.26
2023-03-18T09:03:30.496Z,42.39
2023-03-18T09:05:59.831Z,41.15
2023-03-18T09:08:26.583Z,40.50
2023-03-18T09:10:54.326Z,39.12
2023-03-18T09:13:22.252Z,40.57
2023-03-18T09:15:49.196Z,40.46
2023-03-18T09:18:18.472Z,40.96
2023-03-18T09:20:45.993Z,37.30
2023-03-18T09:23:14.254Z,38.98
2023-03-18T09:25:42.794Z,37.69
2023-03-18T09:28:09.859Z,37.93
2023-03-18T09:30:36.812Z,37.52
2023-03-18T09:33:06.262Z,36.93
2023-03-18T09:35:33.841Z,38.43
2023-03-18T09:38:01.363Z,38.49
2023-03-18T09:40:31.261Z,38.02
2023-03-18T09:43:15.864Z,36.99
2023-03-18T09:45:57.141Z,36.21
2023-03-18T09:48:43.747Z,35.35
2023-03-18T09:51:33.186Z,33.62
2023-03-18T09:54:06.925Z,34.43
2023-03-18T09:56:36.829Z,35.55
2023-03-18T09:59:32.132Z,33.21
2023-03-18T10:01:59.966Z,34.54
2023-03-18T10:04:41.103Z,33.27
2023-03-18T10:07:15.245Z,32.47
2023-03-18T10:09:44.700Z,33.37
2023-03-18T10:12:21.696Z,32.21
2023-03-18T10:15:07.430Z,31.34
2023-03-18T10:17:45.535Z,32.53
2023-03-18T10:21:02.251Z,32.23
2023-03-18T10:23:46.363Z,33.30
2023-03-18T10:26:21.180Z,31.86
2023-03-18T10:29:04.196Z,33.38
2023-03-18T10:31:52.239Z,30.77
2023-03-18T10:34:24.009Z,30.84
2023-03-18T10:36:59.403Z,31.73
2023-03-18T10:39:28.320Z,31.20
2023-03-18T10:41:58.435Z,31.61
2023-03-18T10:44:30.465Z,32.06
2023-03-18T10:47:26.728Z,30.05
2023-03-18T10:50:12.114Z,31.42
2023-03-18T10:52:47.957Z,30.08
2023-03-18T10:55:22.461Z,31.05
2023-03-18T10:57:48.905Z,32.45
2023-03-18T11:00:33.517Z,31.95
2023-03-18T11:03:00.631Z,32.06
2023-03-18T11:05:33.758Z,30.66
2023-03-18T11:08:09.102Z,30.14
2023-03-18T11:10:40.538Z,30.80
2023-03-18T11:13:07.277Z,30.36
2023-03-18T11:15:40.371Z,31.60
2023-03-18T11:18:18.316Z,34.14
2023-03-18T11:20:49.295Z,33.87
2023-03-18T11:23:48.674Z,31.87
2023-03-18T11:26:27.521Z,29.80
2023-03-18T11:28:59.497Z,26.99
2023-03-18T11:31:26.057Z,27.11
2023-03-18T11:33:59.036Z,28.09
2023-03-18T11:36:28.324Z,27.10
2023-03-18T11:39:02.124Z,26.04
2023-03-18T11:41:31.983Z,22.96
2023-03-18T11:44:01.702Z,24.41
2023-03-18T11:46:39.168Z,24.68
2023-03-18T11:49:06.338Z,23.02
2023-03-18T11:52:00.665Z,22.97
2023-03-18T11:54:45.905Z,20.69
2023-03-18T11:57:35.164Z,21.12
2023-03-18T12:00:29.772Z,21.69
2023-03-18T12:03:03.483Z,19.10
2023-03-18T12:05:40.853Z,19.75
2023-03-18T12:08:45.012Z,18.67
2023-03-18T12:11:24.260Z,20.15
2023-03-18T12:14:09.748Z,19.72
2023-03-18T12:16:48.789Z,20.12
2023-03-18T12:20:00.563Z,18.62
2023-03-18T12:22:58.340Z,17.24
2023-03-18T12:25:52.843Z,17.28
2023-03-18T12:28:32.149Z,17.07
2023-03-18T12:31:06.790Z,15.72
2023-03-18T12:34:01.419Z,15.52
2023-03-18T12:36:46.451Z,15.93
2023-03-18T12:39:12.999Z,15.46
2023-03-18T12:41:48.491Z,16.31
2023-03-18T12:44:18.727Z,16.51
2023-03-18T12:47:06.768Z,16.24
2023-03-18T12:49:38.975Z,17.38
2023-03-18T12:52:27.941Z,16.84
2023-03-18T12:55:27.832Z,17.71
2023-03-18T12:58:07.851Z,17.68
2023-03-18T13:00:37.989Z,18.23
2023-03-18T13:03:28.995Z,18.67
2023-03-18T13:06:05.109Z,18.08
2023-03-18T13:08:46.463Z,17.73
2023-03-18T13:11:47.114Z,18.91
2023-03-18T13:14:21.876Z,20.28
2023-03-18T13:16:50.481Z,20.68
2023-03-18T13:19:18.477Z,20.93
2023-03-18T13:21:52.547Z,20.26
2023-03-18T13:24:37.701Z,19.65
2023-03-18T13:27:15.333Z,20.83
2023-03-18T13:30:06.479Z,20.82
2023-03-18T13:33:11.467Z,21.78
2023-03-18T13:36:04.427Z,20.39
2023-03-18T13:38:40.332Z,20.57
2023-03-18T13:41:36.991Z,21.02
2023-03-18T13:44:15.044Z,21.63
2023-03-18T13:46:53.516Z,21.87
2023-03-18T13:49:24.357Z,21.68
2023-03-18T13:51:58.697Z,20.70
2023-03-18T13:54:34.872Z,19.39
2023-03-18T13:57:22.508Z,20.39
2023-03-18T13:59:49.484Z,20.40
2023-03-18T14:03:09.924Z,20.36
2023-03-18T14:05:41.068Z,20.28
2023-03-18T14:08:38.411Z,20.48
2023-03-18T14:11:17.157Z,19.29
2023-03-18T14:13:45.272Z,19.69
2023-03-18T14:16:14.982Z,19.98
2023-03-18T14:18:42.373Z,19.17
2023-03-18T14:21:27.254Z,19.13
2023-03-18T14:24:21.809Z,20.43
2023-03-18T14:27:06.743Z,19.34
2023-03-18T14:29:47.662Z,20.53
2023-03-18T14:32:35.849Z,18.70
2023-03-18T14:35:17.479Z,18.35
2023-03-18T14:38:02.701Z,18.07
2023-03-18T14:40:35.207Z,17.22
2023-03-18T14:43:06.907Z,15.83
2023-03-18T14:45:44.117Z,16.89
2023-03-18T14:48:21.597Z,17.20
2023-03-18T14:50:51.215Z,16.96
2023-03-18T14:53:28.639Z,17.67
2023-03-18T14:55:57.438Z,17.70
2023-03-18T14:58:25.838Z,17.37
2023-03-18T15:00:57.600Z,17.64
2023-03-18T15:03:32.402Z,17.67
2023-03-18T15:06:01.830Z,18.97
2023-03-18T15:08:44.850Z,18.61
2023-03-18T15:11:14.217Z,19.08
2023-03-18T15:13:44.666Z,18.71
2023-03-18T15:16:14.282Z,18.52
2023-03-18T15:18:41.252Z,18.77
2023-03-18T15:21:19.124Z,18.74
2023-03-18T15:23:54.712Z,19.58
2023-03-18T15:26:35.167Z,20.85
2023-03-18T15:29:24.406Z,21.29
2023-03-18T15:31:52.966Z,21.68
2023-03-18T15:34:22.583Z,21.47
2023-03-18T15:37:04.671Z,21.60
2023-03-18T15:39:39.922Z,21.49
2023-03-18T15:42:21.307Z,21.55
2023-03-18T15:45:02.035Z,22.13
2023-03-18T15:47:31.611Z,20.88
2023-03-18T15:50:01.425Z,20.60
2023-03-18T15:52:33.625Z,21.15
2023-03-18T15:55:01.342Z,21.66
2023-03-18T15:57:38.957Z,21.99
2023-03-18T16:00:10.456Z,22.62
2023-03-18T16:02:38.253Z,22.99
2023-03-18T16:05:24.780Z,23.00
2023-03-18T16:07:53.126Z,22.87
2023-03-18T16:10:23.038Z,23.16
2023-03-18T16:12:55.289Z,24.36
2023-03-18T16:15:24.275Z,24.07
2023-03-18T16:17:53.478Z,23.70
2023-03-18T16:20:27.571Z,24.32
2023-03-18T16:22:54.533Z,24.94
2023-03-18T16:25:24.206Z,25.02
2023-03-18T16:27:54.095Z,25.45
2023-03-18T16:30:29.644Z,26.39
2023-03-18T16:32:57.852Z,26.54
2023-03-18T16:35:33.642Z,26.40
2023-03-18T16:38:01.181Z,27.59
2023-03-18T16:40:29.869Z,27.70
2023-03-18T16:42:56.696Z,28.00
2023-03-18T16:45:33.350Z,28.55
2023-03-18T16:48:03.369Z,28.49
2023-03-18T16:50:34.668Z,29.50
2023-03-18T16:53:02.355Z,29.76
2023-03-18T16:55:29.566Z,30.18
2023-03-18T16:57:59.369Z,30.42
2023-03-18T17:00:32.815Z,30.62
2023-03-18T17:03:00.905Z,30.82
2023-03-18T17:05:28.267Z,31.62
2023-03-18T17:07:55.359Z,31.70
2023-03-18T17:10:25.272Z,32.14
2023-03-18T17:12:56.415Z,32.61
2023-03-18T17:15:31.663Z,32.06
2023-03-18T17:17:59.614Z,33.09
2023-03-18T17:20:28.701Z,33.95
2023-03-18T17:22:58.354Z,34.04
2023-03-18T17:25:27.259Z,33.64
2023-03-18T17:27:59.349Z,34.90
2023-03-18T17:30:33.801Z,35.41
2023-03-18T17:33:01.382Z,35.96
2023-03-18T17:35:28.671Z,35.77
2023-03-18T17:37:55.572Z,35.85
2023-03-18T17:40:23.472Z,35.72
2023-03-18T17:42:51.820Z,35.73
2023-03-18T17:45:48.100Z,36.15
2023-03-18T17:48:20.718Z,36.55
2023-03-18T17:50:53.192Z,37.30
2023-03-18T17:53:24.327Z,37.33
2023-03-18T17:55:51.527Z,37.31
2023-03-18T17:58:20.303Z,38.58
2023-03-18T18:00:48.111Z,37.93
2023-03-18T18:03:27.058Z,38.43
2023-03-18T18:05:55.553Z,38.82
2023-03-18T18:08:25.245Z,39.14
2023-03-18T18:11:04.408Z,39.29
2023-03-18T18:13:31.072Z,40.42
2023-03-18T18:15:57.694Z,40.27
2023-03-18T18:18:25.629Z,40.37
2023-03-18T18:20:59.694Z,40.18
2023-03-18T18:23:31.801Z,41.89
2023-03-18T18:26:00.866Z,42.33
2023-03-18T18:28:33.497Z,43.58
2023-03-18T18:31:01.774Z,42.59
2023-03-18T18:33:29.393Z,44.03
2023-03-18T18:35:56.369Z,42.92
2023-03-18T18:38:23.278Z,44.51
2023-03-18T18:40:51.560Z,43.96
2023-03-18T18:43:18.157Z,43.72
2023-03-18T18:45:45.309Z,44.17
2023-03-18T18:48:14.141Z,45.70
2023-03-18T18:50:41.481Z,44.34
2023-03-18T18:53:27.018Z,45.92
2023-03-18T18:55:58.518Z,46.30
2023-03-18T18:58:32.702Z,47.02
2023-03-18T19:01:00.063Z,45.37
2023-03-18T19:03:31.321Z,47.92
2023-03-18T19:05:59.754Z,48.08
2023-03-18T19:08:31.675Z,47.54
2023-03-18T19:11:00.989Z,46.73
2023-03-18T19:13:29.814Z,47.28
2023-03-18T19:15:59.980Z,47.19
2023-03-18T19:18:35.296Z,48.35
2023-03-18T19:21:02.143Z,47.68
2023-03-18T19:23:35.360Z,47.87
2023-03-18T19:26:04.051Z,46.86
2023-03-18T19:28:58.457Z,48.56
2023-03-18T19:31:30.299Z,48.68
2023-03-18T19:33:59.649Z,47.01
2023-03-18T19:36:31.613Z,48.01
2023-03-18T19:39:00.492Z,47.95
2023-03-18T19:41:27.710Z,47.87
2023-03-18T19:44:05.795Z,48.38
2023-03-18T19:46:38.506Z,48.46
2023-03-18T19:49:25.483Z,47.77
2023-03-18T19:51:53.397Z,48.34
2023-03-18T19:54:32.045Z,49.48
2023-03-18T19:57:02.159Z,48.54
2023-03-18T19:59:38.270Z,48.72
2023-03-18T20:02:26.200Z,49.14
2023-03-18T20:04:55.499Z,49.73
2023-03-18T20:07:24.348Z,50.23
2023-03-18T20:09:51.440Z,50.37
2023-03-18T20:12:46.353Z,50.54
2023-03-18T20:15:20.423Z,51.34
2023-03-18T20:17:48.992Z,52.83
2023-03-18T20:20:16.810Z,52.83
2023-03-18T20:22:48.154Z,51.41
2023-03-18T20:25:36.805Z,51.25
2023-03-18T20:28:05.357Z,51.45
2023-03-18T20:30:34.186Z,52.23
2023-03-18T20:33:04.134Z,53.30
2023-03-18T20:35:33.367Z,53.56
2023-03-18T20:38:05.005Z,53.47
2023-03-18T20:40:31.865Z,53.30
2023-03-18T20:42:58.452Z,54.92
2023-03-18T20:45:26.217Z,54.43
2023-03-18T20:47:53.129Z,54.86
2023-03-18T20:50:29.831Z,55.05
2023-03-18T20:52:57.616Z,54.50
2023-03-18T20:55:27.351Z,55.31
2023-03-18T20:57:54.600Z,55.31
2023-03-18T21:00:24.099Z,53.82
2023-03-18T21:02:53.512Z,54.91
2023-03-18T21:05:20.781Z,55.67
2023-03-18T21:07:48.042Z,57.96
2023-03-18T21:10:18.703Z,56.79
2023-03-18T21:12:45.788Z,56.53
2023-03-18T21:15:24.657Z,58.95
2023-03-18T21:17:51.608Z,58.07
2023-03-18T21:20:26.436Z,58.41
2023-03-18T21:22:54.350Z,57.07
2023-03-18T21:25:23.286Z,55.84
2023-03-18T21:27:50.956Z,56.76
2023-03-18T21:30:19.402Z,56.70
2023-03-18T21:32:46.356Z,56.30
2023-03-18T21:35:26.321Z,56.64
2023-03-18T21:37:53.489Z,59.75
2023-03-18T21:40:23.160Z,58.12
2023-03-18T21:42:50.953Z,58.72
2023-03-18T21:45:20.601Z,59.43
2023-03-18T21:47:47.533Z,60.95
2023-03-18T21:50:26.178Z,58.77
2023-03-18T21:52:54.236Z,60.04
2023-03-18T21:55:21.776Z,59.63
2023-03-18T21:57:49.457Z,60.43
2023-03-18T22:00:19.878Z,61.97
2023-03-18T22:02:47.347Z,61.73
2023-03-18T22:05:20.462Z,61.49
2023-03-18T22:07:47.757Z,60.47
2023-03-18T22:10:23.227Z,60.85
2023-03-18T22:12:50.001Z,60.00
2023-03-18T22:15:36.201Z,59.96
2023-03-18T22:18:03.549Z,61.15
2023-03-18T22:20:30.507Z,60.92
2023-03-18T22:22:57.088Z,60.85
2023-03-18T22:25:37.015Z,61.53
2023-03-18T22:28:03.834Z,63.11
2023-03-18T22:30:32.941Z,64.29
2023-03-18T22:33:01.220Z,62.39
2023-03-18T22:35:29.350Z,62.77
2023-03-18T22:37:56.166Z,62.95
2023-03-18T22:40:26.348Z,63.08
2023-03-18T22:42:57.960Z,64.19
2023-03-18T22:45:27.167Z,62.89
2023-03-18T22:47:59.077Z,64.69
2023-03-18T22:50:28.498Z,63.06
2023-03-18T22:53:01.400Z,63.59
2023-03-18T22:55:38.868Z,63.43
2023-03-18T22:58:06.505Z,63.28
2023-03-18T23:00:43.672Z,63.54
2023-03-18T23:03:26.048Z,65.78
2023-03-18T23:05:53.931Z,65.97
2023-03-18T23:08:21.712Z,66.36
2023-03-18T23:10:49.838Z,68.76
2023-03-18T23:13:26.118Z,68.69
2023-03-18T23:15:53.549Z,68.73
2023-03-18T23:18:20.323Z,68.49
2023-03-18T23:20:49.372Z,68.61
2023-03-18T23:23:16.764Z,68.31
2023-03-18T23:25:45.135Z,67.51
2023-03-18T23:28:12.303Z,67.40
2023-03-18T23:30:41.112Z,66.72
2023-03-18T23:33:09.626Z,67.14
2023-03-18T23:35:37.498Z,66.48
2023-03-18T23:38:05.771Z,67.75
2023-03-18T23:40:32.551Z,69.03
2023-03-18T23:42:59.408Z,69.91
2023-03-18T23:45:27.663Z,68.36
2023-03-18T23:47:55.495Z,69.11
2023-03-18T23:50:23.341Z,68.97
2023-03-18T23:52:50.391Z,69.15
2023-03-18T23:55:33.171Z,69.32
2023-03-18T23:58:00.949Z,69.91
